Time;durP1;ratioP1;P1;durP2;ratioP2;P2;SDS_P1;SDS_P2;PMS_P1;PMS_P2;Temp;Humidity;BMP_temperature;BMP_pressure;BME280_temperature;BME280_humidity;BME280_pressure;Samples;Min_cycle;Max_cycle;Signal;HPM_P1;HPM_P2
2022/03/09 00:00:06;;;;;;;6.13;5.53;;;;;;;;;;5015148;28;20509;-73
2022/03/09 00:02:32;;;;;;;6.28;5.32;;;;;;;;;;5032824;28;20471;-73
2022/03/09 00:04:57;;;;;;;5.15;4.65;;;;;;;;;;5031423;28;20139;-73
2022/03/09 00:07:23;;;;;;;5.25;4.72;;;;;;;;;;5032700;28;20131;-73
2022/03/09 00:09:49;;;;;;;5.65;5.15;;;;;;;;;;5031162;28;20041;-73
2022/03/09 00:12:15;;;;;;;7.13;6.28;;;;;;;;;;5032756;28;20045;-73
2022/03/09 00:14:41;;;;;;;5.32;4.82;;;;;;;;;;5032850;28;20615;-73
2022/03/09 00:17:07;;;;;;;6.43;5.78;;;;;;;;;;5014749;28;20600;-74
2022/03/09 00:19:32;;;;;;;6.13;5.30;;;;;;;;;;5032787;28;20069;-73
2022/03/09 00:21:58;;;;;;;6.38;5.80;;;;;;;;;;5031349;28;20053;-74
2022/03/09 00:24:24;;;;;;;6.47;5.32;;;;;;;;;;5033160;28;20065;-74
2022/03/09 00:26:50;;;;;;;7.53;6.40;;;;;;;;;;5032142;28;20049;-72
2022/03/09 00:29:16;;;;;;;5.82;5.32;;;;;;;;;;5014881;28;20042;-74
2022/03/09 00:31:42;;;;;;;6.90;5.90;;;;;;;;;;5030815;28;20073;-73
2022/03/09 00:34:07;;;;;;;6.88;6.22;;;;;;;;;;5014721;28;20077;-74
2022/03/09 00:36:33;;;;;;;6.70;6.00;;;;;;;;;;5030981;28;20045;-74
2022/03/09 00:38:59;;;;;;;5.00;4.50;;;;;;;;;;5032081;28;20049;-74
2022/03/09 00:41:25;;;;;;;6.78;5.80;;;;;;;;;;5032315;28;20121;-74
2022/03/09 00:43:50;;;;;;;6.30;5.70;;;;;;;;;;5032044;28;20041;-75
2022/03/09 00:46:16;;;;;;;6.90;6.13;;;;;;;;;;5032221;28;21181;-74
2022/03/09 00:48:42;;;;;;;6.22;5.63;;;;;;;;;;5032121;28;20049;-74
2022/03/09 00:51:08;;;;;;;5.22;4.72;;;;;;;;;;5030862;28;20409;-74
2022/03/09 00:53:34;;;;;;;4.95;4.45;;;;;;;;;;5032144;28;20132;-74
2022/03/09 00:56:00;;;;;;;7.68;5.93;;;;;;;;;;5030789;28;20049;-74
2022/03/09 00:58:25;;;;;;;7.18;6.47;;;;;;;;;;5032007;28;20057;-74
2022/03/09 01:00:51;;;;;;;6.88;6.18;;;;;;;;;;5031683;28;20056;-74
2022/03/09 01:03:17;;;;;;;12.10;8.35;;;;;;;;;;5031165;28;20053;-73
2022/03/09 01:05:43;;;;;;;6.90;5.60;;;;;;;;;;4997747;28;20037;-74
2022/03/09 01:08:09;;;;;;;6.75;6.15;;;;;;;;;;5014036;28;20049;-72
2022/03/09 01:10:35;;;;;;;13.88;6.13;;;;;;;;;;5031784;28;20030;-73
2022/03/09 01:13:01;;;;;;;5.03;4.53;;;;;;;;;;5032787;28;20472;-74
2022/03/09 01:15:27;;;;;;;4.85;4.45;;;;;;;;;;5031916;28;20120;-74
2022/03/09 01:17:52;;;;;;;6.80;6.28;;;;;;;;;;5032503;28;20100;-74
2022/03/09 01:20:18;;;;;;;5.85;5.35;;;;;;;;;;5032348;28;20040;-75
2022/03/09 01:22:44;;;;;;;6.03;5.45;;;;;;;;;;5031893;28;20128;-74
2022/03/09 01:25:10;;;;;;;5.63;5.10;;;;;;;;;;5031323;28;20120;-75
2022/03/09 01:27:37;;;;;;;6.55;4.97;;;;;;;;;;5031263;28;20057;-74
2022/03/09 01:30:03;;;;;;;6.72;5.93;;;;;;;;;;5030948;28;20037;-74
2022/03/09 01:32:30;;;;;;;5.97;4.43;;;;;;;;;;5029783;28;20061;-74
2022/03/09 01:34:56;;;;;;;6.15;5.22;;;;;;;;;;5009859;28;20148;-74
2022/03/09 01:37:22;;;;;;;7.10;6.47;;;;;;;;;;5011470;28;20049;-74
2022/03/09 01:39:47;;;;;;;6.05;5.45;;;;;;;;;;4994082;28;20572;-73
2022/03/09 01:42:13;;;;;;;6.05;5.53;;;;;;;;;;4993557;28;20045;-74
2022/03/09 01:44:39;;;;;;;4.40;4.00;;;;;;;;;;5011382;28;20070;-73
2022/03/09 01:47:05;;;;;;;6.05;5.22;;;;;;;;;;5010874;28;20462;-74
2022/03/09 01:49:32;;;;;;;4.55;4.05;;;;;;;;;;5011224;28;20041;-74
2022/03/09 01:51:58;;;;;;;5.80;5.30;;;;;;;;;;5027894;28;20073;-73
2022/03/09 01:54:24;;;;;;;5.82;5.03;;;;;;;;;;5029694;28;20562;-73
2022/03/09 01:56:49;;;;;;;6.22;5.03;;;;;;;;;;5030790;28;20037;-74
2022/03/09 01:59:16;;;;;;;6.45;4.88;;;;;;;;;;5013037;28;20045;-73
2022/03/09 02:01:42;;;;;;;5.30;4.80;;;;;;;;;;5012984;28;20539;-73
2022/03/09 02:04:08;;;;;;;6.85;4.50;;;;;;;;;;5029199;28;20037;-74
2022/03/09 02:06:35;;;;;;;7.85;4.60;;;;;;;;;;5012765;28;20053;-74
2022/03/09 02:11:46;;;;;;;6.30;5.05;;;;;;;;;;5012536;28;20136;-73
2022/03/09 02:14:30;;;;;;;7.30;6.60;;;;;;;;;;5030368;28;20173;-73
2022/03/09 02:16:56;;;;;;;6.70;5.97;;;;;;;;;;5030237;28;20052;-73
2022/03/09 02:19:22;;;;;;;6.85;5.28;;;;;;;;;;5030522;28;20052;-74
2022/03/09 02:21:48;;;;;;;6.22;5.53;;;;;;;;;;4996324;28;20049;-73
2022/03/09 02:24:14;;;;;;;6.25;5.57;;;;;;;;;;5030185;28;20041;-74
2022/03/09 02:26:39;;;;;;;5.75;4.70;;;;;;;;;;5030522;28;20076;-74
2022/03/09 02:29:05;;;;;;;6.70;6.10;;;;;;;;;;5028733;28;20088;-74
2022/03/09 02:31:31;;;;;;;8.40;5.22;;;;;;;;;;5012045;28;20426;-75
2022/03/09 02:34:00;;;;;;;5.22;4.30;;;;;;;;;;5030091;28;20041;-74
2022/03/09 02:36:25;;;;;;;4.93;4.38;;;;;;;;;;5031251;28;20041;-73
2022/03/09 02:38:51;;;;;;;6.82;6.13;;;;;;;;;;4997317;28;20136;-74
2022/03/09 02:41:17;;;;;;;6.63;6.03;;;;;;;;;;5030925;28;20072;-75
2022/03/09 02:43:43;;;;;;;6.07;5.25;;;;;;;;;;5031289;28;20079;-74
2022/03/09 02:46:09;;;;;;;5.70;4.65;;;;;;;;;;5030539;28;20058;-74
2022/03/09 02:48:35;;;;;;;4.97;4.43;;;;;;;;;;5030280;28;20045;-73
2022/03/09 02:51:01;;;;;;;6.13;5.25;;;;;;;;;;5029132;28;20052;-74
2022/03/09 02:53:26;;;;;;;6.07;5.47;;;;;;;;;;5028321;28;20068;-74
2022/03/09 02:55:52;;;;;;;6.85;6.15;;;;;;;;;;5029951;28;20505;-74
2022/03/09 02:58:18;;;;;;;8.05;5.85;;;;;;;;;;5027811;28;20049;-74
2022/03/09 03:00:44;;;;;;;5.63;5.07;;;;;;;;;;4995768;28;20057;-73
2022/03/09 03:03:10;;;;;;;6.18;5.57;;;;;;;;;;5029366;28;20144;-72
2022/03/09 03:05:36;;;;;;;7.45;5.40;;;;;;;;;;5012038;28;20452;-71
2022/03/09 03:08:02;;;;;;;7.07;5.60;;;;;;;;;;5024823;28;20045;-71
2022/03/09 03:10:27;;;;;;;7.40;5.50;;;;;;;;;;5020075;28;20535;-71
2022/03/09 03:12:53;;;;;;;7.30;6.60;;;;;;;;;;5012071;28;20049;-72
2022/03/09 03:15:19;;;;;;;10.07;6.15;;;;;;;;;;5028404;28;20064;-72
2022/03/09 03:17:45;;;;;;;8.02;6.13;;;;;;;;;;5034037;28;20124;-72
2022/03/09 03:20:11;;;;;;;8.70;6.82;;;;;;;;;;5047764;28;20095;-72
2022/03/09 03:22:37;;;;;;;7.72;5.45;;;;;;;;;;5048911;28;20485;-72
2022/03/09 03:25:03;;;;;;;8.95;5.78;;;;;;;;;;5043904;28;20072;-72
2022/03/09 04:12:23;;;;;;;7.82;7.13;;;;;;;;;;5032312;28;20080;-72
2022/03/09 04:14:50;;;;;;;10.18;6.88;;;;;;;;;;5040060;28;20048;-72
2022/03/09 04:17:16;;;;;;;5.70;5.10;;;;;;;;;;5036692;28;20045;-72
2022/03/09 04:19:41;;;;;;;8.57;7.43;;;;;;;;;;5028188;28;20045;-72
2022/03/09 04:22:07;;;;;;;7.53;6.57;;;;;;;;;;5030770;28;20044;-72
2022/03/09 04:24:35;;;;;;;7.97;6.88;;;;;;;;;;5048560;28;20045;-72
2022/03/09 04:27:00;;;;;;;9.05;5.80;;;;;;;;;;5028892;28;20526;-72
2022/03/09 04:29:26;;;;;;;7.05;6.28;;;;;;;;;;5034193;28;20040;-72
2022/03/09 04:31:53;;;;;;;6.75;5.85;;;;;;;;;;5017042;28;20120;-72
2022/03/09 04:34:19;;;;;;;7.00;4.97;;;;;;;;;;5010925;28;20128;-72
2022/03/09 04:36:45;;;;;;;7.28;6.30;;;;;;;;;;5014613;28;20052;-72
2022/03/09 04:39:10;;;;;;;10.93;7.70;;;;;;;;;;5031821;28;20041;-72
2022/03/09 04:41:36;;;;;;;12.27;8.70;;;;;;;;;;5032071;28;20418;-72
2022/03/09 04:44:03;;;;;;;9.93;8.00;;;;;;;;;;5031800;28;20045;-73
2022/03/09 04:46:29;;;;;;;7.60;6.88;;;;;;;;;;5037230;28;20865;-74
2022/03/09 04:48:55;;;;;;;9.40;7.70;;;;;;;;;;5050543;28;20044;-72
2022/03/09 04:51:20;;;;;;;8.00;7.18;;;;;;;;;;5053174;28;20101;-72
2022/03/09 04:53:46;;;;;;;6.25;5.53;;;;;;;;;;5031760;28;20072;-72
2022/03/09 04:56:13;;;;;;;8.38;5.88;;;;;;;;;;5013986;28;20064;-72
2022/03/09 04:58:39;;;;;;;10.77;5.95;;;;;;;;;;5030694;28;20041;-72
2022/03/09 05:01:05;;;;;;;13.00;9.23;;;;;;;;;;5021387;28;20077;-72
2022/03/09 05:03:32;;;;;;;12.15;6.85;;;;;;;;;;5011821;28;20521;-72
2022/03/09 05:05:58;;;;;;;6.85;6.25;;;;;;;;;;4994917;28;20073;-72
2022/03/09 05:08:24;;;;;;;6.50;5.65;;;;;;;;;;5011693;28;20088;-72
2022/03/09 05:10:50;;;;;;;11.05;7.97;;;;;;;;;;5010886;28;20482;-72
2022/03/09 05:13:16;;;;;;;5.07;4.60;;;;;;;;;;5016502;28;20057;-76
2022/03/09 05:15:42;;;;;;;8.70;6.15;;;;;;;;;;5025485;28;20050;-75
2022/03/09 05:18:08;;;;;;;10.57;7.75;;;;;;;;;;4977611;28;20073;-76
2022/03/09 05:20:34;;;;;;;10.05;6.85;;;;;;;;;;4994089;28;20572;-75
2022/03/09 05:23:00;;;;;;;7.45;6.30;;;;;;;;;;5010486;28;20049;-76
2022/03/09 05:25:26;;;;;;;7.40;6.38;;;;;;;;;;5011425;28;20116;-76
2022/03/09 05:27:52;;;;;;;7.32;5.88;;;;;;;;;;5010210;28;20140;-76
2022/03/09 05:30:18;;;;;;;6.97;6.30;;;;;;;;;;5011422;28;20497;-75
2022/03/09 05:32:44;;;;;;;14.02;6.18;;;;;;;;;;5031261;28;20045;-74
2022/03/09 05:35:10;;;;;;;6.10;5.10;;;;;;;;;;5031508;28;20060;-73
2022/03/09 05:37:39;;;;;;;11.40;5.80;;;;;;;;;;5024302;28;20041;-73
2022/03/09 05:40:05;;;;;;;6.40;5.55;;;;;;;;;;4992128;28;20038;-74
2022/03/09 05:42:31;;;;;;;7.47;5.15;;;;;;;;;;5009423;28;20038;-74
2022/03/09 05:44:57;;;;;;;10.57;6.78;;;;;;;;;;5011378;28;20041;-74
2022/03/09 05:47:23;;;;;;;10.63;6.38;;;;;;;;;;5028501;28;20064;-71
2022/03/09 05:49:49;;;;;;;8.35;6.53;;;;;;;;;;5020265;28;20045;-72
2022/03/09 05:52:15;;;;;;;6.97;5.70;;;;;;;;;;5029144;28;20029;-73
2022/03/09 05:54:41;;;;;;;7.07;5.78;;;;;;;;;;5028865;28;20093;-72
2022/03/09 05:57:07;;;;;;;15.93;5.13;;;;;;;;;;5014201;28;20444;-71
2022/03/09 05:59:32;;;;;;;5.53;4.57;;;;;;;;;;5028221;28;20037;-72
2022/03/09 06:01:58;;;;;;;5.20;4.75;;;;;;;;;;5028755;28;20072;-71
2022/03/09 06:04:24;;;;;;;6.63;4.80;;;;;;;;;;5030743;28;20061;-71
2022/03/09 06:06:50;;;;;;;7.03;4.93;;;;;;;;;;5028901;28;20104;-71
2022/03/09 06:09:16;;;;;;;8.02;5.30;;;;;;;;;;5028320;28;20044;-71
2022/03/09 06:11:43;;;;;;;10.38;4.60;;;;;;;;;;5029138;28;20041;-72
2022/03/09 06:14:09;;;;;;;6.18;5.57;;;;;;;;;;5010055;28;20540;-72
2022/03/09 06:16:36;;;;;;;9.48;7.13;;;;;;;;;;5010686;28;20056;-72
2022/03/09 06:19:01;;;;;;;9.98;6.35;;;;;;;;;;5010156;28;20088;-71
2022/03/09 06:21:27;;;;;;;6.07;5.53;;;;;;;;;;5028194;28;20810;-73
2022/03/09 06:23:53;;;;;;;13.00;6.25;;;;;;;;;;5010095;28;20509;-72
2022/03/09 06:26:20;;;;;;;8.68;5.63;;;;;;;;;;5026715;28;20433;-72
2022/03/09 06:28:45;;;;;;;7.60;6.10;;;;;;;;;;5028222;28;20037;-72
2022/03/09 06:31:11;;;;;;;10.18;7.80;;;;;;;;;;5026015;28;20049;-72
2022/03/09 06:33:37;;;;;;;13.20;6.43;;;;;;;;;;5028107;28;20525;-72
2022/03/09 06:36:06;;;;;;;7.40;6.60;;;;;;;;;;5028620;28;20045;-73
2022/03/09 06:38:33;;;;;;;6.63;4.90;;;;;;;;;;5010317;28;20080;-72
2022/03/09 06:40:59;;;;;;;9.98;6.38;;;;;;;;;;5010530;28;20516;-72
2022/03/09 06:43:25;;;;;;;6.13;5.53;;;;;;;;;;5025774;28;20051;-72
2022/03/09 06:45:52;;;;;;;10.48;9.13;;;;;;;;;;5023721;28;20144;-73
2022/03/09 06:48:18;;;;;;;10.80;6.20;;;;;;;;;;5028035;28;20053;-72
2022/03/09 06:50:44;;;;;;;7.95;4.50;;;;;;;;;;5011026;28;20108;-71
2022/03/09 06:53:10;;;;;;;7.38;4.95;;;;;;;;;;5028478;28;20037;-72
2022/03/09 06:55:36;;;;;;;6.15;4.90;;;;;;;;;;4994399;28;20037;-72
2022/03/09 06:58:02;;;;;;;6.78;6.03;;;;;;;;;;5029192;28;20049;-71
2022/03/09 07:00:28;;;;;;;10.85;6.72;;;;;;;;;;5027428;28;20044;-72
2022/03/09 07:02:56;;;;;;;8.25;5.22;;;;;;;;;;5011533;28;20136;-74
2022/03/09 07:05:21;;;;;;;10.15;7.15;;;;;;;;;;5010354;28;20029;-72
2022/03/09 07:07:48;;;;;;;9.73;5.28;;;;;;;;;;5027665;28;20056;-72
2022/03/09 07:10:13;;;;;;;4.70;4.20;;;;;;;;;;5026191;28;20037;-72
2022/03/09 07:12:40;;;;;;;9.35;5.25;;;;;;;;;;5027814;28;20533;-73
2022/03/09 07:15:06;;;;;;;5.85;5.30;;;;;;;;;;5026870;28;20041;-73
2022/03/09 07:17:32;;;;;;;5.70;5.10;;;;;;;;;;5027472;28;20128;-73
2022/03/09 07:19:58;;;;;;;6.93;5.43;;;;;;;;;;5030783;28;20533;-73
2022/03/09 07:22:24;;;;;;;6.82;5.15;;;;;;;;;;5027461;28;20042;-75
2022/03/09 07:24:50;;;;;;;8.15;4.97;;;;;;;;;;5027784;28;20065;-72
2022/03/09 07:27:16;;;;;;;11.68;5.88;;;;;;;;;;5027393;28;20096;-72
2022/03/09 07:29:42;;;;;;;5.82;4.78;;;;;;;;;;5027796;28;20049;-71
2022/03/09 07:32:28;;;;;;;10.77;5.35;;;;;;;;;;5029185;28;20050;-72
2022/03/09 07:35:52;;;;;;;3.20;3.00;;;;;;;;;;5027170;28;20038;-71
2022/03/09 07:38:47;;;;;;;6.78;5.28;;;;;;;;;;5008218;28;20069;-73
2022/03/09 07:41:13;;;;;;;12.88;6.47;;;;;;;;;;5028892;28;20168;-73
2022/03/09 07:47:15;;;;;;;13.43;8.40;;;;;;;;;;5011595;28;20104;-71
2022/03/09 07:49:59;;;;;;;8.10;4.63;;;;;;;;;;5029368;28;20506;-72
2022/03/09 07:52:59;;;;;;;7.22;5.20;;;;;;;;;;5005722;28;20052;-72
2022/03/09 07:55:56;;;;;;;7.82;5.75;;;;;;;;;;5023180;28;20061;-74
2022/03/09 07:58:33;;;;;;;5.28;4.82;;;;;;;;;;5008722;28;20037;-74
2022/03/09 08:01:06;;;;;;;4.43;3.85;;;;;;;;;;5029319;28;20053;-78
2022/03/09 08:03:32;;;;;;;6.25;5.65;;;;;;;;;;5012871;28;20409;-75
2022/03/09 08:06:01;;;;;;;9.88;5.00;;;;;;;;;;5027207;28;20080;-76
2022/03/09 08:08:27;;;;;;;9.30;6.13;;;;;;;;;;5027588;28;20049;-72
2022/03/09 08:10:53;;;;;;;10.18;6.47;;;;;;;;;;5011094;28;20052;-73
2022/03/09 08:13:19;;;;;;;8.35;7.05;;;;;;;;;;5009584;28;20461;-72
2022/03/09 08:15:45;;;;;;;5.80;4.20;;;;;;;;;;5029155;28;20466;-73
2022/03/09 08:18:11;;;;;;;7.75;4.47;;;;;;;;;;5030381;28;20080;-74
2022/03/09 08:20:37;;;;;;;14.27;5.25;;;;;;;;;;5013150;28;20350;-72
2022/03/09 08:23:03;;;;;;;6.50;5.50;;;;;;;;;;5032013;28;20140;-73
2022/03/09 08:25:29;;;;;;;5.82;5.20;;;;;;;;;;5027749;28;20068;-73
2022/03/09 08:27:57;;;;;;;6.68;5.78;;;;;;;;;;5027903;28;20045;-73
2022/03/09 08:30:23;;;;;;;6.90;5.90;;;;;;;;;;5027756;28;20049;-73
2022/03/09 08:32:49;;;;;;;12.95;5.28;;;;;;;;;;5031768;28;20391;-74
2022/03/09 08:35:15;;;;;;;8.00;7.13;;;;;;;;;;5029059;28;20061;-74
2022/03/09 08:37:41;;;;;;;7.60;6.10;;;;;;;;;;5012880;28;20045;-73
2022/03/09 08:40:08;;;;;;;7.25;6.55;;;;;;;;;;4979904;28;20091;-73
2022/03/09 08:42:34;;;;;;;8.15;6.60;;;;;;;;;;5028562;28;20045;-72
2022/03/09 08:44:59;;;;;;;10.30;5.15;;;;;;;;;;5017549;28;20103;-71
2022/03/09 08:47:25;;;;;;;6.40;5.03;;;;;;;;;;5035003;28;20041;-72
2022/03/09 08:49:51;;;;;;;9.05;6.28;;;;;;;;;;5034270;28;20100;-72
2022/03/09 08:52:17;;;;;;;7.72;6.97;;;;;;;;;;5032457;28;20056;-72
2022/03/09 08:54:43;;;;;;;9.15;6.03;;;;;;;;;;5032498;28;20033;-72
2022/03/09 08:57:09;;;;;;;7.75;7.03;;;;;;;;;;5016935;28;20034;-72
2022/03/09 08:59:35;;;;;;;10.30;8.10;;;;;;;;;;5029976;28;20049;-72
2022/03/09 09:02:01;;;;;;;6.32;5.45;;;;;;;;;;5011847;28;20177;-72
2022/03/09 09:04:27;;;;;;;8.25;4.93;;;;;;;;;;5027862;28;20120;-72
2022/03/09 09:06:52;;;;;;;10.30;6.00;;;;;;;;;;5029947;28;20049;-72
2022/03/09 09:09:20;;;;;;;7.25;6.50;;;;;;;;;;5029221;28;20041;-72
2022/03/09 09:11:46;;;;;;;6.05;3.67;;;;;;;;;;5029474;28;20041;-71
2022/03/09 09:14:11;;;;;;;7.22;4.80;;;;;;;;;;5028446;28;20049;-72
2022/03/09 09:16:41;;;;;;;6.63;5.82;;;;;;;;;;5011517;28;20899;-71
2022/03/09 09:19:07;;;;;;;8.50;4.55;;;;;;;;;;5028624;28;20041;-72
2022/03/09 09:21:32;;;;;;;5.65;5.00;;;;;;;;;;5027642;28;20051;-71
2022/03/09 09:23:59;;;;;;;5.90;5.35;;;;;;;;;;5029240;28;20509;-71
2022/03/09 09:26:25;;;;;;;7.57;6.78;;;;;;;;;;5028783;28;20056;-71
2022/03/09 09:28:51;;;;;;;5.82;4.97;;;;;;;;;;5028838;28;20159;-72
2022/03/09 09:31:18;;;;;;;7.95;5.93;;;;;;;;;;5028586;28;20045;-72
2022/03/09 09:33:44;;;;;;;5.20;4.75;;;;;;;;;;5014616;28;20049;-71
2022/03/09 09:36:10;;;;;;;11.35;5.68;;;;;;;;;;5028099;28;20527;-73
2022/03/09 09:38:36;;;;;;;8.95;5.65;;;;;;;;;;5010633;28;20045;-72
2022/03/09 09:41:02;;;;;;;6.85;6.18;;;;;;;;;;5011040;28;20037;-72
2022/03/09 09:43:29;;;;;;;8.55;6.43;;;;;;;;;;5026396;28;20119;-72
2022/03/09 09:45:57;;;;;;;5.95;4.88;;;;;;;;;;5025420;28;20053;-72
2022/03/09 09:48:23;;;;;;;5.25;4.75;;;;;;;;;;5028076;28;20688;-71
2022/03/09 09:50:51;;;;;;;6.13;4.85;;;;;;;;;;5025604;28;20129;-72
2022/03/09 09:53:17;;;;;;;5.13;3.83;;;;;;;;;;4997906;28;20111;-71
2022/03/09 09:55:43;;;;;;;8.88;4.88;;;;;;;;;;5028143;28;20037;-71
2022/03/09 09:58:09;;;;;;;3.90;3.60;;;;;;;;;;5027798;28;20072;-70
2022/03/09 10:00:35;;;;;;;4.63;4.20;;;;;;;;;;5028011;28;20627;-72
2022/03/09 10:03:04;;;;;;;10.68;6.95;;;;;;;;;;5010197;28;20096;-71
2022/03/09 10:05:31;;;;;;;4.40;3.72;;;;;;;;;;5027086;28;20045;-72
2022/03/09 10:08:03;;;;;;;5.82;5.20;;;;;;;;;;5028290;28;20063;-71
2022/03/09 10:10:30;;;;;;;5.63;5.13;;;;;;;;;;5026557;28;20041;-71
2022/03/09 10:13:14;;;;;;;5.47;4.97;;;;;;;;;;5026141;28;20045;-71
2022/03/09 10:15:40;;;;;;;4.65;4.25;;;;;;;;;;5027500;28;20045;-71
2022/03/09 10:18:12;;;;;;;9.85;4.00;;;;;;;;;;5008231;28;20565;-72
2022/03/09 10:20:38;;;;;;;5.65;5.13;;;;;;;;;;5027531;28;20045;-72
2022/03/09 10:23:04;;;;;;;5.45;4.18;;;;;;;;;;5028383;28;20096;-71
2022/03/09 10:25:30;;;;;;;6.03;5.43;;;;;;;;;;5010000;28;20084;-72
2022/03/09 10:27:56;;;;;;;5.03;4.43;;;;;;;;;;5027572;28;20534;-72
2022/03/09 10:30:23;;;;;;;6.60;4.30;;;;;;;;;;5027639;28;20073;-71
2022/03/09 10:32:49;;;;;;;6.72;6.05;;;;;;;;;;5027300;28;20047;-72
2022/03/09 10:35:16;;;;;;;7.15;4.88;;;;;;;;;;5027592;28;20045;-72
2022/03/09 10:37:43;;;;;;;8.18;4.10;;;;;;;;;;5027406;28;20061;-71
2022/03/09 10:40:10;;;;;;;4.05;3.75;;;;;;;;;;5026965;28;20080;-73
2022/03/09 10:42:36;;;;;;;6.07;4.60;;;;;;;;;;5007691;28;20151;-72
2022/03/09 10:45:03;;;;;;;4.25;3.85;;;;;;;;;;5026885;28;20124;-72
2022/03/09 10:47:30;;;;;;;4.25;3.85;;;;;;;;;;5027094;28;20053;-71
2022/03/09 10:50:09;;;;;;;6.78;5.63;;;;;;;;;;5027460;28;20084;-73
2022/03/09 10:52:51;;;;;;;5.13;4.32;;;;;;;;;;5027592;28;20041;-72
2022/03/09 10:55:19;;;;;;;4.57;3.67;;;;;;;;;;5025823;28;20038;-73
2022/03/09 10:57:45;;;;;;;6.13;3.88;;;;;;;;;;5010025;28;20045;-72
2022/03/09 11:00:12;;;;;;;4.30;3.90;;;;;;;;;;5027262;28;20584;-73
2022/03/09 11:02:47;;;;;;;5.35;4.20;;;;;;;;;;5024891;28;20056;-72
2022/03/09 11:05:13;;;;;;;4.57;4.20;;;;;;;;;;5026025;28;20531;-72
2022/03/09 11:07:41;;;;;;;4.88;4.45;;;;;;;;;;5027133;28;20479;-71
2022/03/09 11:10:08;;;;;;;3.83;3.45;;;;;;;;;;5010732;28;20500;-72
2022/03/09 11:12:34;;;;;;;4.03;3.70;;;;;;;;;;5006534;28;20527;-72
2022/03/09 11:15:00;;;;;;;4.82;2.88;;;;;;;;;;4997814;28;20057;-72
2022/03/09 11:17:26;;;;;;;4.55;4.15;;;;;;;;;;5000356;28;20133;-73
2022/03/09 11:19:52;;;;;;;5.50;5.00;;;;;;;;;;4998235;28;20124;-72
2022/03/09 11:22:18;;;;;;;7.68;4.20;;;;;;;;;;4996120;28;20042;-72
2022/03/09 11:24:44;;;;;;;6.25;5.03;;;;;;;;;;5012791;28;20037;-72
2022/03/09 11:27:10;;;;;;;6.38;4.63;;;;;;;;;;4997173;28;20081;-72
2022/03/09 11:29:36;;;;;;;5.43;4.55;;;;;;;;;;5001068;28;20049;-71
2022/03/09 11:32:06;;;;;;;3.47;3.17;;;;;;;;;;4995814;28;20412;-72
2022/03/09 11:34:39;;;;;;;3.45;3.15;;;;;;;;;;4999421;28;20052;-72
2022/03/09 11:37:06;;;;;;;4.53;3.45;;;;;;;;;;5017299;28;20045;-72
2022/03/09 11:39:32;;;;;;;4.05;3.53;;;;;;;;;;4992488;28;20091;-72
2022/03/09 11:42:17;;;;;;;3.95;3.58;;;;;;;;;;4998097;28;20072;-71
2022/03/09 11:44:43;;;;;;;5.35;3.65;;;;;;;;;;5007436;28;20714;-71
2022/03/09 11:47:09;;;;;;;3.72;3.42;;;;;;;;;;5014110;28;20057;-72
2022/03/09 11:49:36;;;;;;;8.10;4.30;;;;;;;;;;5017746;28;20045;-71
2022/03/09 11:52:08;;;;;;;4.68;4.28;;;;;;;;;;5002839;28;20514;-71
2022/03/09 11:54:41;;;;;;;5.07;4.07;;;;;;;;;;5020128;28;20045;-72
2022/03/09 11:57:08;;;;;;;3.42;3.13;;;;;;;;;;4987060;28;20103;-72
2022/03/09 11:59:34;;;;;;;5.97;4.78;;;;;;;;;;5012956;28;20042;-72
2022/03/09 12:02:01;;;;;;;4.68;4.15;;;;;;;;;;5019577;28;20045;-71
2022/03/09 12:04:45;;;;;;;4.13;3.75;;;;;;;;;;4983249;28;20076;-72
2022/03/09 12:07:34;;;;;;;4.03;3.55;;;;;;;;;;5017829;28;20122;-72
2022/03/09 12:10:11;;;;;;;4.22;3.92;;;;;;;;;;4995966;28;20095;-72
2022/03/09 12:12:37;;;;;;;4.75;3.65;;;;;;;;;;5017864;28;21140;-71
2022/03/09 12:15:08;;;;;;;5.28;4.78;;;;;;;;;;5015119;28;20038;-71
2022/03/09 12:17:43;;;;;;;5.07;4.55;;;;;;;;;;4979987;28;20041;-71
2022/03/09 12:20:17;;;;;;;4.35;3.95;;;;;;;;;;5011206;28;20092;-72
2022/03/09 12:23:01;;;;;;;5.35;3.78;;;;;;;;;;5017162;28;20057;-71
2022/03/09 12:25:41;;;;;;;3.60;2.72;;;;;;;;;;5009803;28;20096;-72
2022/03/09 12:28:24;;;;;;;4.85;3.90;;;;;;;;;;4976131;28;20061;-72
2022/03/09 12:30:53;;;;;;;4.32;3.60;;;;;;;;;;5009803;28;20056;-72
2022/03/09 12:33:31;;;;;;;4.00;3.70;;;;;;;;;;4993017;28;20120;-72
2022/03/09 12:36:05;;;;;;;3.88;3.58;;;;;;;;;;4976264;28;20045;-72
2022/03/09 12:38:59;;;;;;;8.02;4.22;;;;;;;;;;5012565;28;20046;-72
2022/03/09 12:41:41;;;;;;;3.47;3.28;;;;;;;;;;5008719;28;20046;-72
2022/03/09 12:44:11;;;;;;;5.22;4.40;;;;;;;;;;5012180;28;20053;-73
2022/03/09 12:46:39;;;;;;;3.58;3.28;;;;;;;;;;5008998;28;20049;-72
2022/03/09 12:49:07;;;;;;;5.03;4.63;;;;;;;;;;4992466;28;20116;-72
2022/03/09 12:51:33;;;;;;;9.25;4.20;;;;;;;;;;4981976;28;20141;-72
2022/03/09 12:53:59;;;;;;;4.18;3.88;;;;;;;;;;5009969;28;20124;-72
2022/03/09 12:56:25;;;;;;;6.82;3.90;;;;;;;;;;5011109;28;20122;-71
2022/03/09 12:58:51;;;;;;;4.90;3.67;;;;;;;;;;5015820;28;20049;-72
2022/03/09 13:01:17;;;;;;;5.38;4.97;;;;;;;;;;4991542;28;20034;-72
2022/03/09 13:03:43;;;;;;;4.97;4.35;;;;;;;;;;4992230;28;20054;-72
2022/03/09 13:06:25;;;;;;;4.50;4.13;;;;;;;;;;5008278;28;20128;-72
2022/03/09 13:08:51;;;;;;;3.60;3.30;;;;;;;;;;5006046;28;20050;-72
2022/03/09 13:11:30;;;;;;;3.60;3.30;;;;;;;;;;5007734;28;20077;-72
2022/03/09 13:13:56;;;;;;;3.35;3.05;;;;;;;;;;4985781;28;20045;-72
2022/03/09 13:16:25;;;;;;;4.47;4.18;;;;;;;;;;5010209;28;20092;-72
2022/03/09 13:18:57;;;;;;;2.85;2.65;;;;;;;;;;5008846;28;20517;-71
2022/03/09 13:21:26;;;;;;;3.53;3.22;;;;;;;;;;4991859;28;20034;-71
2022/03/09 13:23:54;;;;;;;3.92;3.63;;;;;;;;;;5006336;28;20057;-73
2022/03/09 13:26:21;;;;;;;3.40;3.10;;;;;;;;;;4994529;28;20457;-72
2022/03/09 13:28:48;;;;;;;3.15;2.95;;;;;;;;;;5009813;28;20516;-72
2022/03/09 13:31:14;;;;;;;5.53;3.00;;;;;;;;;;5009348;28;20417;-72
2022/03/09 13:33:40;;;;;;;2.80;2.60;;;;;;;;;;5010085;28;20050;-73
2022/03/09 13:36:10;;;;;;;3.78;3.47;;;;;;;;;;5009541;28;20120;-73
2022/03/09 13:38:39;;;;;;;3.53;3.28;;;;;;;;;;5012210;28;20068;-71
2022/03/09 13:41:06;;;;;;;3.20;2.85;;;;;;;;;;5011401;28;20528;-71
2022/03/09 13:43:38;;;;;;;5.25;3.50;;;;;;;;;;5028658;28;20056;-71
2022/03/09 13:46:11;;;;;;;3.45;3.25;;;;;;;;;;4999111;28;20399;-71
2022/03/09 13:48:37;;;;;;;3.47;3.17;;;;;;;;;;5007681;28;20053;-71
2022/03/09 13:51:03;;;;;;;3.40;3.10;;;;;;;;;;5009312;28;20120;-72
2022/03/09 13:53:30;;;;;;;3.83;3.50;;;;;;;;;;5008020;28;20048;-71
2022/03/09 13:55:56;;;;;;;4.60;3.95;;;;;;;;;;4977451;28;20429;-71
2022/03/09 13:58:23;;;;;;;3.75;3.45;;;;;;;;;;5009547;28;20050;-72
2022/03/09 14:00:49;;;;;;;3.30;3.10;;;;;;;;;;5006340;28;20066;-72
2022/03/09 14:03:19;;;;;;;4.10;3.80;;;;;;;;;;4981644;28;20044;-71
2022/03/09 14:05:46;;;;;;;2.40;2.25;;;;;;;;;;4973087;28;20177;-71
2022/03/09 14:08:31;;;;;;;2.72;2.53;;;;;;;;;;4972478;28;20260;-71
2022/03/09 14:11:13;;;;;;;2.33;2.22;;;;;;;;;;4998237;28;20041;-71
2022/03/09 14:13:59;;;;;;;4.13;3.83;;;;;;;;;;5022008;28;20049;-71
2022/03/09 14:16:26;;;;;;;2.58;2.38;;;;;;;;;;5012996;28;20037;-71
2022/03/09 14:18:52;;;;;;;4.05;2.63;;;;;;;;;;4992990;28;20429;-72
2022/03/09 14:21:18;;;;;;;3.85;3.00;;;;;;;;;;5010061;28;20046;-71
2022/03/09 14:23:47;;;;;;;2.92;2.72;;;;;;;;;;5011118;28;20584;-71
2022/03/09 14:26:14;;;;;;;3.20;3.00;;;;;;;;;;5010388;28;20137;-72
2022/03/09 14:28:40;;;;;;;4.00;3.70;;;;;;;;;;5010551;28;20088;-71
2022/03/09 14:31:06;;;;;;;2.72;2.53;;;;;;;;;;5015374;28;20092;-71
2022/03/09 14:33:31;;;;;;;3.83;2.58;;;;;;;;;;5003994;28;20045;-73
2022/03/09 14:35:59;;;;;;;4.55;3.53;;;;;;;;;;4959347;28;20506;-72
2022/03/09 14:38:25;;;;;;;2.20;2.10;;;;;;;;;;4974588;28;20648;-71
2022/03/09 14:40:51;;;;;;;3.20;3.00;;;;;;;;;;4993179;28;20449;-72
2022/03/09 14:43:17;;;;;;;3.08;2.78;;;;;;;;;;5010265;28;20042;-72
2022/03/09 14:45:43;;;;;;;3.95;3.17;;;;;;;;;;4977789;28;20461;-70
2022/03/09 14:48:09;;;;;;;3.40;3.20;;;;;;;;;;5011879;28;20364;-71
2022/03/09 14:50:35;;;;;;;3.08;2.88;;;;;;;;;;5011032;28;20042;-72
2022/03/09 14:53:02;;;;;;;7.45;4.05;;;;;;;;;;5013077;28;20037;-70
2022/03/09 14:55:27;;;;;;;4.05;3.60;;;;;;;;;;5006532;28;20046;-70
2022/03/09 14:57:53;;;;;;;4.78;4.38;;;;;;;;;;4990296;28;20531;-70
2022/03/09 15:00:19;;;;;;;4.50;4.10;;;;;;;;;;5008370;28;20037;-71
2022/03/09 15:02:46;;;;;;;4.68;4.10;;;;;;;;;;5008175;28;20395;-70
2022/03/09 15:05:12;;;;;;;8.23;3.33;;;;;;;;;;5006170;28;20038;-71
2022/03/09 15:07:38;;;;;;;2.38;2.25;;;;;;;;;;5007816;28;20045;-70
2022/03/09 15:10:07;;;;;;;3.75;3.05;;;;;;;;;;5006816;28;20045;-70
2022/03/09 15:12:33;;;;;;;3.38;3.08;;;;;;;;;;5000717;28;20050;-70
2022/03/09 15:14:59;;;;;;;4.70;4.30;;;;;;;;;;5027626;28;20095;-71
2022/03/09 15:17:25;;;;;;;3.13;2.90;;;;;;;;;;5026958;28;20491;-70
2022/03/09 15:19:51;;;;;;;4.05;3.72;;;;;;;;;;5025245;28;20041;-70
2022/03/09 15:22:17;;;;;;;7.13;4.00;;;;;;;;;;5027242;28;20753;-70
2022/03/09 15:24:43;;;;;;;4.15;3.80;;;;;;;;;;5026131;28;20046;-70
2022/03/09 15:27:09;;;;;;;5.85;4.28;;;;;;;;;;5027104;28;20062;-70
2022/03/09 15:29:35;;;;;;;3.90;3.30;;;;;;;;;;5024612;28;20037;-70
2022/03/09 15:32:01;;;;;;;3.95;3.55;;;;;;;;;;5027094;28;20124;-70
2022/03/09 15:34:28;;;;;;;3.50;3.20;;;;;;;;;;5023100;28;20125;-70